• Join FlightAware (Why Join?)
  • Login
  • US Flag 
03:34AM EDT


 

Airport Tracker/Info


-or-


 

Live Flight TrackerFlight Track Log ✈ SWA525 ✈ 01-May-2013 ✈ KLIT - KDAL

Flight Track Log - Related Links

Times and Time Zones

All times are in EDT time to prevent confusion due to time zone crossing. See the SWA525 flight status page for this flight to view local times or setup timezone preferences in your user account.

Time Position Orientation Groundspeed Altitude Reporting Facility
EDT Latitude Longitude Course Direction KTS MPH feet Rate Location/Type
02:29PM 34.7433 -92.2147 320° Northwest 177 204 900  Level Memphis Center
02:30PM 34.7864 -92.2586 320° Northwest 240 276 3,400 2,880 Climbing Memphis Center
02:32PM 34.7567 -92.4197 257° West 275 316 9,600 3,120 Climbing Memphis Center
02:33PM 34.7236 -92.5200 248° West 303 349 12,200 3,180 Climbing Memphis Center
02:34PM 34.6781 -92.6275 243° Southwest 338 389 16,000 3,300 Climbing Memphis Center
02:35PM 34.6342 -92.7400 245° Southwest 360 414 18,800 2,640 Climbing Memphis Center
02:36PM 34.5881 -92.8547 244° Southwest 373 429 21,300 2,460 Climbing Memphis Center
02:37PM 34.5417 -92.9794 246° West 391 450 23,800 2,220 Climbing Memphis Center
02:38PM 34.4911 -93.1014 243° Southwest 402 463 25,800 1,920 Climbing Memphis Center
02:39PM 34.4403 -93.2281 244° Southwest 408 470 27,700 1,740 Climbing Memphis Center
02:40PM 34.3869 -93.3622 244° Southwest 427 491 29,300 1,740 Climbing Memphis Center
02:42PM 34.3103 -93.5542 244° Southwest 428 493 32,200 1,860 Climbing Fort Worth Center
02:43PM 34.2728 -93.6942 252° West 434 499 34,100 1,860 Climbing Fort Worth Center
02:44PM 34.2350 -93.8314 252° West 439 505 36,000 900 Climbing Fort Worth Center
02:45PM 34.1883 -93.9589 246° West 426 490 36,000  Level Fort Worth Center
02:46PM 34.1397 -94.0861 245° Southwest 420 483 36,000  Level Fort Worth Center
02:47PM 34.0850 -94.2261 245° Southwest 420 483 36,000  Level Fort Worth Center
02:48PM 34.0381 -94.3558 246° West 425 489 36,000  Level Fort Worth Center
02:49PM 33.9889 -94.4853 245° Southwest 425 489 36,000  Level Fort Worth Center
02:50PM 33.9378 -94.6147 245° Southwest 425 489 36,000  Level Fort Worth Center
02:51PM 33.8864 -94.7464 245° Southwest 425 489 36,000  Level Fort Worth Center
02:52PM 33.8367 -94.8753 245° Southwest 425 489 36,000  Level Fort Worth Center
02:53PM 33.7872 -95.0042 245° Southwest 425 489 36,000 -960 Level Fort Worth Center
02:54PM 33.7375 -95.1356 246° West 430 495 34,200 -2,640 Descending Fort Worth Center
02:55PM 33.6856 -95.2642 244° Southwest 430 495 30,800 -3,180 Descending Fort Worth Center
02:56PM 33.6333 -95.3953 244° Southwest 430 495 27,900 2,580 Descending Fort Worth Center
02:57PM 33.5853 -95.5208 245° Southwest 430 495 36,000 -2,580 Climbing Fort Worth Center
02:58PM 33.5431 -95.6314 245° Southwest 416 479 22,900 -7,980 Descending Fort Worth Center
02:59PM 33.4906 -95.7644 245° Southwest 406 467 20,100 -2,520 Descending Fort Worth Center
03:00PM 33.4481 -95.8700 244° Southwest 401 461 17,900 -2,460 Descending Fort Worth Center
03:01PM 33.3994 -95.9928 245° Southwest 388 447 15,200 -2,460 Descending Fort Worth Center
03:02PM 33.3589 -96.0928 244° Southwest 377 434 13,000 -2,340 Descending Fort Worth Center
03:03PM 33.3139 -96.2078 245° Southwest 365 420 10,500 -1,620 Descending Fort Worth Center
03:04PM 33.2792 -96.2928 244° Southwest 339 390 9,800 -840 Descending Fort Worth Center
03:05PM 33.2319 -96.3853 239° Southwest 315 362 8,900 -960 Descending Fort Worth Center
03:06PM 33.1867 -96.4553 232° Southwest 292 336 7,900 -1,140 Descending Fort Worth Center
03:07PM 33.1372 -96.5353 234° Southwest 282 325 6,700 -1,200 Descending Fort Worth Center
03:08PM 33.0981 -96.6025 235° Southwest 266 306 5,600 -1,200 Descending Fort Worth Center
03:09PM 33.0567 -96.6722 235° Southwest 266 306 4,400 -1,020 Descending Fort Worth Center
03:09PM 33.0333 -96.7000 225° Southwest 263 303 4,000 -660 Descending Dallas / Fort Worth TRACON
03:10PM 33.0000 -96.7667 239° Southwest 229 264 3,400 -540 Descending Dallas / Fort Worth TRACON
03:11PM 32.9500 -96.8333 228° Southwest 233 268 3,000 -480 Descending Dallas / Fort Worth TRACON
03:12PM 32.9000 -96.9000 228° Southwest 213 245 2,500 -780 Descending Dallas / Fort Worth TRACON
03:13PM 32.8833 -96.8667 121° Southeast 156 180 1,500 -540 Descending Dallas / Fort Worth TRACON
03:14PM 32.8500 -96.8333 140° Southeast 191 220 1,500 420 Level Dallas / Fort Worth TRACON
03:15PM 32.8167 -96.8167 157° South 201 231 2,200 960 Climbing Dallas / Fort Worth TRACON
03:16PM 32.8000 -96.7500 107° East 228 262 3,000 360 Climbing Dallas / Fort Worth TRACON
03:17PM 32.8667 -96.7500 360° North 236 272 3,000  Level Dallas / Fort Worth TRACON
03:18PM 32.9000 -96.8167 301° West 235 270 3,000 -420 Level Dallas / Fort Worth TRACON
03:19PM 32.9500 -96.8833 312° West 218 251 2,200 -600 Descending Dallas / Fort Worth TRACON
03:20PM 32.9167 -96.9000 203° Southwest 186 214 1,900 -600 Descending Dallas / Fort Worth TRACON
03:21PM 32.8833 -96.8833 157° South 133 153 1,100 -840 Descending Dallas / Fort Worth TRACON